Time;durP1;ratioP1;P1;durP2;ratioP2;P2;SDS_P1;SDS_P2;PMS_P1;PMS_P2;Temp;Humidity;BMP_temperature;BMP_pressure;BME280_temperature;BME280_humidity;BME280_pressure;Samples;Min_cycle;Max_cycle;Signal;HPM_P1;HPM_P2
2021/09/17 00:00:37;;;;;;;;;19.33;18.00;;;;;15.07;75.92;101370.78;5081113;28;46011;-79
2021/09/17 00:03:02;;;;;;;;;21.33;19.00;;;;;15.04;76.29;101373.00;5082404;28;45401;-79
2021/09/17 00:05:29;;;;;;;;;20.67;19.67;;;;;15.00;76.09;101357.31;5082296;28;45425;-79
2021/09/17 00:07:55;;;;;;;;;19.67;19.00;;;;;15.06;75.98;101362.94;5082121;28;45243;-79
2021/09/17 00:10:21;;;;;;;;;16.67;16.67;;;;;15.05;75.79;101363.97;5081986;28;45273;-78
2021/09/17 00:12:47;;;;;;;;;19.00;19.00;;;;;15.04;76.14;101362.28;5080646;28;47357;-78
2021/09/17 00:15:13;;;;;;;;;18.00;18.00;;;;;15.05;75.92;101359.44;5082158;28;45239;-79
2021/09/17 00:17:39;;;;;;;;;20.00;18.67;;;;;15.04;75.92;101359.63;5082302;28;45163;-78
2021/09/17 00:20:07;;;;;;;;;15.67;15.67;;;;;15.02;76.06;101351.78;5081916;28;45323;-78
2021/09/17 00:22:33;;;;;;;;;16.67;16.67;;;;;14.94;75.86;101347.38;5082005;28;46411;-79
2021/09/17 00:24:58;;;;;;;;;19.67;19.67;;;;;14.93;75.82;101348.38;5080386;28;45724;-78
2021/09/17 00:27:23;;;;;;;;;15.00;15.00;;;;;14.93;76.31;101345.72;5082200;28;45256;-78
2021/09/17 00:29:49;;;;;;;;;18.00;17.00;;;;;14.93;76.04;101345.72;5077351;28;45270;-79
2021/09/17 00:32:14;;;;;;;;;15.33;15.33;;;;;14.92;75.89;101333.34;5061530;28;45267;-78
2021/09/17 00:34:40;;;;;;;;;16.67;16.00;;;;;14.90;75.87;101335.38;5061617;28;45237;-78
2021/09/17 00:37:05;;;;;;;;;18.33;17.33;;;;;14.87;76.20;101338.44;5061495;28;45242;-78
2021/09/17 00:39:30;;;;;;;;;20.33;20.00;;;;;14.79;76.24;101334.03;5061377;28;45205;-78
2021/09/17 00:41:57;;;;;;;;;17.67;17.67;;;;;14.79;76.25;101338.56;5061444;28;45254;-78
2021/09/17 00:44:27;;;;;;;;;19.33;19.33;;;;;14.82;76.21;101339.03;5061766;28;45249;-79
2021/09/17 00:46:53;;;;;;;;;20.67;19.67;;;;;14.82;76.38;101332.81;5060966;28;45338;-78
2021/09/17 00:49:24;;;;;;;;;15.67;15.67;;;;;14.82;76.12;101335.50;5061296;28;45323;-79
2021/09/17 00:51:50;;;;;;;;;18.67;18.67;;;;;14.76;76.18;101335.19;5059707;28;47393;-79
2021/09/17 00:54:17;;;;;;;;;17.00;17.00;;;;;14.76;76.37;101339.75;5060884;28;45252;-79
2021/09/17 00:56:43;;;;;;;;;20.67;17.00;;;;;14.76;76.26;101327.16;5061423;28;45311;-78
2021/09/17 00:59:09;;;;;;;;;21.67;21.00;;;;;14.73;76.28;101318.72;5061084;28;45511;-78
2021/09/17 01:01:36;;;;;;;;;16.33;16.33;;;;;14.77;76.17;101322.66;5060958;28;45284;-78
2021/09/17 01:04:03;;;;;;;;;18.00;18.00;;;;;14.70;76.27;101311.06;5061056;28;45236;-79
2021/09/17 01:06:29;;;;;;;;;17.00;17.00;;;;;14.69;76.28;101323.59;5061169;28;45243;-79
2021/09/17 01:08:54;;;;;;;;;18.00;18.00;;;;;14.68;76.46;101313.91;5060829;28;45431;-78
2021/09/17 01:11:20;;;;;;;;;18.67;17.00;;;;;14.64;76.41;101312.63;5060937;28;46322;-78
2021/09/17 01:13:46;;;;;;;;;20.67;18.00;;;;;14.63;76.31;101311.78;5060813;28;45313;-78
2021/09/17 01:16:12;;;;;;;;;16.33;16.00;;;;;14.60;76.37;101309.50;5061032;28;45318;-78
2021/09/17 01:18:37;;;;;;;;;15.00;14.67;;;;;14.54;76.29;101298.72;5060846;28;45335;-78
2021/09/17 01:21:03;;;;;;;;;16.00;16.00;;;;;14.49;76.12;101301.97;5060816;28;46330;-79
2021/09/17 01:23:29;;;;;;;;;18.00;17.33;;;;;14.50;76.53;101301.78;5061381;28;45248;-78
2021/09/17 01:25:55;;;;;;;;;15.33;15.33;;;;;14.46;76.17;101302.31;5060556;28;45255;-79
2021/09/17 01:28:25;;;;;;;;;16.50;16.00;;;;;14.38;76.26;101295.22;5060890;28;45228;-79
2021/09/17 01:30:51;;;;;;;;;13.33;13.33;;;;;14.40;76.43;101298.56;5055328;28;46812;-79
2021/09/17 01:33:17;;;;;;;;;17.67;17.67;;;;;14.41;76.46;101294.88;5080754;27;45369;-78
2021/09/17 01:35:43;;;;;;;;;16.00;15.67;;;;;14.37;76.57;101285.56;5079500;28;45499;-78
2021/09/17 01:38:08;;;;;;;;;15.67;15.00;;;;;14.37;76.75;101283.69;5080608;28;45358;-79
2021/09/17 01:40:34;;;;;;;;;16.00;16.00;;;;;14.31;76.47;101273.75;5080679;28;46275;-79
2021/09/17 01:42:59;;;;;;;;;16.33;16.00;;;;;14.35;76.66;101283.06;5080877;28;45294;-78
2021/09/17 01:45:25;;;;;;;;;16.00;16.00;;;;;14.34;76.71;101283.25;5080713;28;45282;-78
2021/09/17 01:47:50;;;;;;;;;16.00;14.67;;;;;14.33;76.59;101289.59;5079531;28;45872;-78
2021/09/17 01:50:15;;;;;;;;;19.00;16.00;;;;;14.33;76.60;101285.09;5079372;28;48332;-79
2021/09/17 01:52:41;;;;;;;;;15.33;15.33;;;;;14.30;76.59;101282.78;5080482;28;45220;-78
2021/09/17 01:55:07;;;;;;;;;15.67;14.00;;;;;14.29;76.46;101281.13;5080544;28;45267;-78
2021/09/17 01:57:32;;;;;;;;;14.67;14.33;;;;;14.27;76.46;101280.47;5079332;27;45256;-78
2021/09/17 01:59:58;;;;;;;;;16.33;15.67;;;;;14.26;76.61;101274.31;5080549;28;45948;-79
2021/09/17 02:02:23;;;;;;;;;16.67;15.00;;;;;14.23;76.13;101281.88;5080556;27;45314;-79
2021/09/17 02:04:49;;;;;;;;;16.00;15.00;;;;;14.21;76.52;101263.34;5080629;28;45199;-78
2021/09/17 02:07:14;;;;;;;;;15.00;15.00;;;;;14.17;76.62;101261.22;5080415;28;45240;-78
2021/09/17 02:09:39;;;;;;;;;14.67;14.00;;;;;14.18;76.52;101263.72;5080285;28;46075;-79
2021/09/17 02:12:05;;;;;;;;;13.33;13.33;;;;;14.17;76.57;101255.88;5080455;28;45270;-78
2021/09/17 02:14:31;;;;;;;;;15.67;15.67;;;;;14.17;76.35;101261.22;5080295;28;45291;-78
2021/09/17 02:16:56;;;;;;;;;12.00;12.00;;;;;14.11;76.31;101242.25;5079998;27;45524;-78
2021/09/17 02:19:22;;;;;;;;;16.33;16.00;;;;;14.17;76.64;101261.22;5080173;28;46211;-78
2021/09/17 02:21:50;;;;;;;;;17.67;16.33;;;;;14.16;76.50;101248.88;5078667;28;45397;-79
2021/09/17 02:24:15;;;;;;;;;17.00;17.00;;;;;14.18;76.55;101244.16;5080217;28;45289;-79
2021/09/17 02:26:41;;;;;;;;;13.00;12.33;;;;;14.16;76.46;101248.88;5080016;28;45440;-78
2021/09/17 02:29:06;;;;;;;;;16.33;15.33;;;;;14.14;76.60;101238.38;5080221;28;46057;-79
2021/09/17 02:31:31;;;;;;;;;14.00;12.67;;;;;14.15;76.46;101245.38;5060932;27;45448;-79
2021/09/17 02:33:57;;;;;;;;;16.00;16.00;;;;;14.09;76.81;101236.25;5058393;28;45341;-79
2021/09/17 02:36:22;;;;;;;;;16.33;16.33;;;;;14.01;76.87;101231.84;5059541;28;45448;-79
2021/09/17 02:38:48;;;;;;;;;15.00;15.00;;;;;14.05;76.97;101231.47;5058301;28;47211;-78
2021/09/17 02:41:13;;;;;;;;;18.00;18.00;;;;;14.04;76.98;101229.81;5059704;28;45293;-78
2021/09/17 02:43:38;;;;;;;;;17.33;16.33;;;;;14.08;77.00;101239.13;5059896;28;45217;-79
2021/09/17 02:46:04;;;;;;;;;14.67;14.67;;;;;14.08;76.95;101245.31;5059349;28;45302;-79
2021/09/17 02:48:29;;;;;;;;;16.00;16.00;;;;;14.06;76.90;101236.63;5058197;28;47126;-78
2021/09/17 02:50:55;;;;;;;;;16.00;16.00;;;;;14.04;77.05;101237.84;5059568;28;45349;-79
2021/09/17 02:53:20;;;;;;;;;13.33;13.33;;;;;14.00;76.99;101240.88;5059522;28;45406;-78
2021/09/17 02:55:45;;;;;;;;;16.33;15.33;;;;;14.00;77.03;101238.19;5059380;28;45375;-78
2021/09/17 02:58:11;;;;;;;;;16.33;15.33;;;;;14.00;77.07;101229.34;5059486;28;45409;-78
2021/09/17 03:00:39;;;;;;;;;15.00;15.00;;;;;13.95;76.92;101227.22;5059536;28;45374;-79
2021/09/17 03:03:05;;;;;;;;;16.00;15.67;;;;;13.93;76.98;101217.75;5059694;28;45295;-79
2021/09/17 03:05:30;;;;;;;;;18.00;18.00;;;;;13.92;77.05;101224.91;5059183;28;45279;-78
2021/09/17 03:07:55;;;;;;;;;15.33;15.33;;;;;13.92;77.12;101221.44;5059329;28;45281;-78
2021/09/17 03:10:21;;;;;;;;;15.67;15.67;;;;;13.93;77.29;101220.41;5062743;28;45215;-78
2021/09/17 03:12:46;;;;;;;;;14.50;14.50;;;;;13.94;77.20;101222.91;5063001;28;45229;-78
2021/09/17 03:15:12;;;;;;;;;16.67;16.67;;;;;13.94;77.00;101222.91;5062910;28;45225;-79
2021/09/17 03:17:37;;;;;;;;;19.67;19.00;;;;;13.88;76.88;101210.28;5062696;28;47493;-78
2021/09/17 03:20:04;;;;;;;;;16.33;15.67;;;;;13.85;77.00;101207.97;5062812;28;45305;-79
2021/09/17 03:22:29;;;;;;;;;29.67;26.67;;;;;13.87;77.24;101211.28;5062787;28;45206;-78
2021/09/17 03:24:54;;;;;;;;;23.67;22.00;;;;;13.88;77.25;101207.59;5062416;28;45342;-79
2021/09/17 03:27:20;;;;;;;;;24.00;24.00;;;;;13.88;76.98;101210.28;5062469;28;46035;-79
2021/09/17 03:29:45;;;;;;;;;25.33;25.00;;;;;13.86;77.21;101205.13;5066421;28;45268;-78
2021/09/17 03:32:10;;;;;;;;;29.67;29.33;;;;;13.83;77.00;101202.81;5082915;28;45295;-78
2021/09/17 03:34:36;;;;;;;;;26.00;25.00;;;;;13.81;77.16;101201.34;5082719;28;45465;-78
2021/09/17 03:37:02;;;;;;;;;28.00;27.00;;;;;13.83;77.00;101196.66;5082272;28;46032;-78
2021/09/17 03:39:27;;;;;;;;;24.67;24.00;;;;;13.85;76.94;101200.78;5082722;28;45309;-78
2021/09/17 03:41:52;;;;;;;;;24.33;22.00;;;;;13.85;76.96;101198.13;5082813;28;45522;-79
2021/09/17 03:44:18;;;;;;;;;23.67;21.33;;;;;13.79;76.88;101193.50;5082647;28;45250;-79
2021/09/17 03:46:44;;;;;;;;;26.67;26.00;;;;;13.77;77.20;101190.22;5082195;28;45370;-78
2021/09/17 03:49:09;;;;;;;;;24.00;23.00;;;;;13.78;77.21;101199.88;5081357;28;45405;-78
2021/09/17 03:51:34;;;;;;;;;29.67;27.00;;;;;13.78;77.05;101188.34;5082594;28;45285;-78
2021/09/17 03:54:00;;;;;;;;;28.00;26.00;;;;;13.70;76.51;101194.63;5080766;28;45904;-79
2021/09/17 03:56:25;;;;;;;;;27.00;26.67;;;;;13.71;77.11;101198.97;5082425;28;46032;-78
2021/09/17 03:58:50;;;;;;;;;25.00;25.00;;;;;13.68;77.37;101200.13;5082468;28;45217;-79
2021/09/17 04:01:16;;;;;;;;;22.33;21.33;;;;;13.62;77.47;101201.72;5082560;27;45254;-79
2021/09/17 04:03:42;;;;;;;;;21.00;21.00;;;;;13.68;77.34;101204.66;5082436;28;45465;-79
2021/09/17 04:06:07;;;;;;;;;25.00;24.00;;;;;13.72;77.18;101205.94;5080779;28;46335;-78
2021/09/17 04:08:34;;;;;;;;;24.00;23.33;;;;;13.71;77.23;101204.31;5082386;28;45156;-79
2021/09/17 04:10:59;;;;;;;;;23.33;23.33;;;;;13.67;76.97;101208.34;5082338;28;45161;-79
2021/09/17 04:13:24;;;;;;;;;26.00;25.67;;;;;13.63;76.88;101205.22;5082109;28;45369;-79
2021/09/17 04:15:50;;;;;;;;;24.33;23.33;;;;;13.61;77.23;101208.06;5082090;27;45369;-79
2021/09/17 04:18:15;;;;;;;;;23.33;23.00;;;;;13.60;77.08;101211.75;5082162;28;45350;-79
2021/09/17 04:20:41;;;;;;;;;24.00;23.00;;;;;13.58;77.14;101204.91;5081266;28;45418;-79
2021/09/17 04:23:07;;;;;;;;;22.33;21.33;;;;;13.55;77.26;101205.28;5081825;28;45325;-80
2021/09/17 04:25:32;;;;;;;;;27.33;26.00;;;;;13.54;77.26;101211.66;5081875;28;45341;-79
2021/09/17 04:27:57;;;;;;;;;29.33;28.33;;;;;13.57;77.12;101204.13;5081996;28;45240;-79
2021/09/17 04:30:23;;;;;;;;;24.67;23.00;;;;;13.55;77.28;101203.44;5072732;28;45307;-79
2021/09/17 04:32:49;;;;;;;;;18.67;17.33;;;;;13.53;77.08;101202.78;5061500;28;45267;-79
2021/09/17 04:35:14;;;;;;;;;20.00;18.00;;;;;13.55;77.32;101199.94;5061448;28;46309;-79
2021/09/17 04:37:46;;;;;;;;;27.67;24.00;;;;;13.52;77.33;101197.66;5061433;28;45274;-79
2021/09/17 04:40:14;;;;;;;;;20.67;20.67;;;;;13.49;77.18;101196.13;5060131;28;45295;-79
2021/09/17 04:42:40;;;;;;;;;20.33;19.00;;;;;13.45;77.27;101197.53;5061404;28;45532;-79
2021/09/17 04:45:07;;;;;;;;;19.33;19.33;;;;;13.45;77.45;101200.19;5059672;28;48345;-79
2021/09/17 04:47:32;;;;;;;;;23.33;20.33;;;;;13.45;77.29;101198.34;5061216;28;45315;-79
2021/09/17 04:49:59;;;;;;;;;21.33;19.33;;;;;13.45;77.30;101189.50;5061529;28;45210;-79
2021/09/17 04:52:25;;;;;;;;;19.00;18.00;;;;;13.46;77.08;101192.00;5061238;28;45323;-79
2021/09/17 04:54:51;;;;;;;;;19.67;19.67;;;;;13.47;77.44;101201.66;5060825;28;45358;-80
2021/09/17 04:57:17;;;;;;;;;25.00;21.00;;;;;13.44;77.12;101198.53;5061204;28;45323;-79
2021/09/17 04:59:42;;;;;;;;;21.33;20.33;;;;;13.43;77.36;101197.69;5061277;28;45264;-80
2021/09/17 05:02:08;;;;;;;;;23.67;21.33;;;;;13.41;77.29;101190.91;5061197;28;45473;-79
2021/09/17 05:04:33;;;;;;;;;19.33;18.00;;;;;13.35;77.63;101195.13;5060985;28;46222;-80
2021/09/17 05:06:58;;;;;;;;;20.00;19.00;;;;;13.35;77.72;101190.59;5061017;28;45313;-80
2021/09/17 05:09:24;;;;;;;;;21.00;21.00;;;;;13.36;77.88;101189.59;5061069;28;45335;-80
2021/09/17 05:11:50;;;;;;;;;21.00;21.00;;;;;13.33;77.82;101187.28;5061036;28;45213;-81
2021/09/17 05:14:15;;;;;;;;;19.00;18.00;;;;;13.34;77.79;101202.28;5060337;28;45364;-83
2021/09/17 05:16:44;;;;;;;;;20.33;20.33;;;;;13.35;77.58;101195.94;5059455;28;45255;-84
2021/09/17 05:19:10;;;;;;;;;22.67;20.00;;;;;13.36;77.70;101191.44;5060962;28;45374;-83
2021/09/17 05:21:35;;;;;;;;;20.33;19.67;;;;;13.34;77.81;101194.28;5060626;28;45304;-83
2021/09/17 05:24:00;;;;;;;;;21.00;19.67;;;;;13.35;77.86;101195.13;5059474;28;48124;-81
2021/09/17 05:26:26;;;;;;;;;22.00;19.00;;;;;13.33;77.63;101199.81;5060889;28;45378;-82
2021/09/17 05:28:51;;;;;;;;;21.67;21.67;;;;;13.33;77.74;101203.31;5060550;28;45308;-81
2021/09/17 05:31:17;;;;;;;;;17.00;16.33;;;;;13.34;77.78;101190.78;5060054;28;45379;-80
2021/09/17 05:33:42;;;;;;;;;22.67;20.33;;;;;13.31;77.77;101194.66;5060455;28;45323;-79
2021/09/17 05:36:07;;;;;;;;;22.67;21.67;;;;;13.34;77.69;101193.44;5060193;28;45338;-79
2021/09/17 05:38:33;;;;;;;;;18.67;18.67;;;;;13.28;77.81;101181.66;5060446;28;45321;-82
2021/09/17 05:40:59;;;;;;;;;19.33;19.00;;;;;13.31;77.61;101197.31;5060149;28;45459;-82
2021/09/17 05:43:25;;;;;;;;;19.33;19.33;;;;;13.35;77.82;101195.13;5058878;28;47589;-83
2021/09/17 05:45:50;;;;;;;;;19.67;19.67;;;;;13.34;78.04;101190.78;5060233;28;45204;-83
2021/09/17 05:48:15;;;;;;;;;21.33;19.67;;;;;13.28;77.84;101178.16;5060523;28;45996;-83
2021/09/17 05:50:41;;;;;;;;;18.67;18.67;;;;;13.35;77.80;101189.78;5060320;28;45208;-79
2021/09/17 05:53:06;;;;;;;;;20.33;18.67;;;;;13.33;78.08;101181.13;5060002;28;45369;-80
2021/09/17 05:55:34;;;;;;;;;19.00;16.00;;;;;13.31;77.96;101185.78;5060108;28;45283;-80
2021/09/17 05:57:59;;;;;;;;;19.33;19.00;;;;;13.33;77.96;101187.28;5060431;28;45214;-83
2021/09/17 06:00:24;;;;;;;;;21.33;19.33;;;;;13.38;77.95;101189.44;5060076;28;45350;-80
2021/09/17 06:02:50;;;;;;;;;21.33;21.33;;;;;13.39;77.97;101185.72;5060208;28;45329;-82
2021/09/17 06:05:15;;;;;;;;;22.00;22.00;;;;;13.43;78.22;101186.19;5060085;28;45290;-85
2021/09/17 06:07:42;;;;;;;;;22.33;21.67;;;;;13.40;77.82;101176.69;5060063;28;45268;-85
2021/09/17 06:10:09;;;;;;;;;22.67;22.00;;;;;13.48;77.91;101189.16;5059751;28;45445;-81
2021/09/17 06:12:35;;;;;;;;;23.33;23.00;;;;;13.47;77.95;101196.31;5059774;28;46268;-84
2021/09/17 06:15:00;;;;;;;;;19.67;19.67;;;;;13.49;78.24;101185.47;5059821;28;45204;-84
2021/09/17 06:17:26;;;;;;;;;21.67;20.67;;;;;13.54;77.94;101183.13;5060106;28;45288;-87
2021/09/17 06:19:51;;;;;;;;;22.33;22.33;;;;;13.57;77.94;101187.25;5060847;28;45162;-88
2021/09/17 06:22:17;;;;;;;;;19.33;19.33;;;;;13.60;77.84;101189.56;5062129;28;46811;-84
2021/09/17 06:24:42;;;;;;;;;25.00;23.00;;;;;13.59;77.97;101187.91;5063870;28;45259;-90
2021/09/17 06:27:08;;;;;;;;;23.00;23.00;;;;;13.59;77.96;101185.25;5066963;28;45245;-88
2021/09/17 06:29:33;;;;;;;;;23.00;22.67;;;;;13.55;78.36;101182.09;5072498;28;45771;-88
2021/09/17 06:32:02;;;;;;;;;22.00;22.00;;;;;13.58;78.30;101189.75;5071088;28;47233;-88
2021/09/17 06:34:27;;;;;;;;;22.00;22.00;;;;;13.55;78.31;101190.09;5068484;28;45375;-88
2021/09/17 06:36:53;;;;;;;;;21.33;21.33;;;;;13.58;78.75;101192.41;5059474;28;45324;-88
2021/09/17 06:39:22;;;;;;;;;27.00;25.67;;;;;13.60;78.63;101181.53;5062293;28;45379;-88
2021/09/17 06:41:51;;;;;;;;;28.00;27.67;;;;;13.72;78.62;101190.75;5058346;28;46787;-86
2021/09/17 06:44:29;;;;;;;;;23.00;22.33;;;;;13.73;78.77;101180.88;5059207;28;45331;-87
2021/09/17 06:46:55;;;;;;;;;27.33;25.33;;;;;13.83;78.49;101184.09;5058172;28;45367;-83
2021/09/17 06:49:21;;;;;;;;;30.33;28.00;;;;;13.85;78.54;101174.06;5059094;28;45427;-84
2021/09/17 06:51:46;;;;;;;;;28.67;26.33;;;;;13.94;78.64;101188.16;5057900;28;46909;-85
2021/09/17 06:54:12;;;;;;;;;28.33;26.33;;;;;13.95;78.46;101181.78;5058631;28;45221;-85
2021/09/17 06:56:37;;;;;;;;;26.00;26.00;;;;;13.99;78.55;101182.25;5060181;28;45821;-83
2021/09/17 06:59:02;;;;;;;;;27.00;25.00;;;;;14.08;78.49;101183.00;5060717;28;45231;-81
2021/09/17 07:01:28;;;;;;;;;28.67;28.00;;;;;14.04;78.48;101171.88;5060163;28;45285;-83
2021/09/17 07:03:53;;;;;;;;;27.00;27.00;;;;;14.14;78.69;101182.25;5060531;28;45265;-80
2021/09/17 07:06:19;;;;;;;;;27.00;27.00;;;;;14.19;78.60;101177.16;5059735;28;46088;-83
2021/09/17 07:08:44;;;;;;;;;23.67;23.00;;;;;14.23;78.76;101173.09;5059439;28;45595;-82
2021/09/17 07:11:10;;;;;;;;;26.67;26.00;;;;;14.27;78.93;101169.03;5058720;28;46676;-87
2021/09/17 07:13:35;;;;;;;;;27.67;25.67;;;;;14.30;78.65;101173.16;5057990;28;45410;-86
2021/09/17 07:16:01;;;;;;;;;27.67;25.67;;;;;14.37;78.91;101166.03;5058688;28;45312;-83
2021/09/17 07:18:27;;;;;;;;;25.33;25.00;;;;;14.44;78.90;101167.97;5058660;28;46478;-82
2021/09/17 07:20:54;;;;;;;;;25.00;25.00;;;;;14.50;78.99;101176.06;5060258;28;46084;-82
2021/09/17 07:23:20;;;;;;;;;27.00;27.00;;;;;14.51;79.12;101160.84;5059626;28;45322;-82
2021/09/17 07:25:46;;;;;;;;;27.67;26.00;;;;;14.62;79.23;101167.53;5060863;28;45143;-82
2021/09/17 07:28:11;;;;;;;;;26.67;25.00;;;;;14.64;79.22;101162.84;5061981;28;45777;-81
2021/09/17 07:30:37;;;;;;;;;27.33;25.67;;;;;14.72;78.77;101168.03;5068915;28;47405;-83
2021/09/17 07:33:03;;;;;;;;;48.25;38.50;;;;;14.76;79.29;101161.28;5080397;28;45346;-82
2021/09/17 07:35:28;;;;;;;;;24.67;24.67;;;;;14.81;79.19;101168.78;5077800;28;45382;-83
2021/09/17 07:37:54;;;;;;;;;31.00;28.00;;;;;14.90;79.34;101172.13;5078950;28;45290;-82
2021/09/17 07:40:20;;;;;;;;;24.33;24.33;;;;;14.96;79.31;101163.34;5078841;28;45995;-84
2021/09/17 07:42:47;;;;;;;;;36.50;31.00;;;;;15.04;78.93;101170.41;5079060;28;45328;-83
2021/09/17 07:45:14;;;;;;;;;32.33;27.67;;;;;15.12;79.16;101169.44;5078086;28;45326;-84
2021/09/17 07:47:40;;;;;;;;;40.33;33.00;;;;;15.20;79.15;101168.47;5066898;27;45487;-86
2021/09/17 07:50:07;;;;;;;;;48.50;40.25;;;;;15.21;79.51;101170.13;5056499;28;46833;-85
2021/09/17 07:52:33;;;;;;;;;45.33;39.00;;;;;15.18;79.47;101151.78;5058410;28;45323;-85
2021/09/17 07:54:58;;;;;;;;;44.67;37.33;;;;;15.32;79.33;101179.47;5058630;28;45303;-85
2021/09/17 07:57:24;;;;;;;;;42.33;36.33;;;;;15.38;79.61;101166.13;5060901;28;46158;-86
2021/09/17 07:59:49;;;;;;;;;46.00;37.00;;;;;15.46;79.12;101175.03;5062284;28;45233;-85
2021/09/17 08:02:15;;;;;;;;;41.67;36.33;;;;;15.52;79.40;101171.56;5061316;28;45445;-87
2021/09/17 08:04:40;;;;;;;;;40.67;35.67;;;;;15.57;79.19;101171.81;5061217;28;45374;-85
2021/09/17 08:07:06;;;;;;;;;47.25;39.75;;;;;15.63;79.20;101165.66;5062567;28;45463;-85
2021/09/17 08:09:32;;;;;;;;;34.33;31.00;;;;;15.70;79.18;101164.84;5062162;28;45729;-86
2021/09/17 08:11:59;;;;;;;;;43.33;37.33;;;;;15.76;79.35;101162.22;5061958;28;45350;-84
2021/09/17 08:14:24;;;;;;;;;35.00;31.67;;;;;15.86;79.28;101167.22;5060574;28;45281;-84
2021/09/17 08:16:50;;;;;;;;;54.50;44.75;;;;;15.91;79.20;101171.97;5061778;28;45386;-84
2021/09/17 08:19:16;;;;;;;;;37.67;33.67;;;;;15.95;79.87;101175.09;5060451;28;47188;-84
2021/09/17 08:21:43;;;;;;;;;31.67;29.00;;;;;16.00;79.52;101173.50;5061345;28;45189;-83
2021/09/17 08:24:16;;;;;;;;;37.67;32.33;;;;;16.04;79.92;101168.53;5061273;28;45563;-83
2021/09/17 08:26:48;;;;;;;;;35.33;32.33;;;;;16.09;79.59;101173.31;5060798;28;45241;-84
2021/09/17 08:29:14;;;;;;;;;31.00;28.33;;;;;16.15;79.58;101173.34;5056174;28;45393;-84
2021/09/17 08:31:40;;;;;;;;;28.67;26.00;;;;;16.22;79.26;101172.53;5079732;28;45529;-84
2021/09/17 08:34:07;;;;;;;;;29.67;28.33;;;;;16.29;79.91;101173.38;5081920;27;45154;-84
2021/09/17 08:36:33;;;;;;;;;34.67;31.67;;;;;16.35;79.67;101171.75;5082187;28;45405;-84
2021/09/17 08:38:59;;;;;;;;;25.00;24.67;;;;;16.39;79.80;101167.63;5081962;27;46048;-84
2021/09/17 08:41:28;;;;;;;;;27.00;27.00;;;;;16.41;79.48;101168.25;5080942;28;45373;-83
2021/09/17 08:43:54;;;;;;;;;27.33;25.67;;;;;16.45;79.47;101164.13;5083003;28;45376;-84
2021/09/17 08:46:20;;;;;;;;;21.33;21.33;;;;;16.51;79.79;101165.16;5080480;28;45535;-86
2021/09/17 08:48:51;;;;;;;;;19.33;18.33;;;;;16.58;78.96;101168.69;5059954;28;46207;-84
2021/09/17 08:51:17;;;;;;;;;24.00;21.67;;;;;16.68;78.49;101172.84;5059757;28;45723;-84
2021/09/17 08:53:43;;;;;;;;;18.00;17.33;;;;;16.70;78.99;101166.22;5060871;28;45344;-83
2021/09/17 08:56:15;;;;;;;;;17.33;17.33;;;;;16.72;78.62;101174.91;5059608;28;46180;-84
2021/09/17 08:58:41;;;;;;;;;16.33;15.67;;;;;16.73;79.30;101159.66;5059539;28;45973;-84
2021/09/17 09:01:06;;;;;;;;;14.00;14.00;;;;;16.77;78.63;101166.25;5059148;28;45450;-84
2021/09/17 09:03:34;;;;;;;;;16.67;16.00;;;;;16.84;78.96;101167.06;5059441;28;45447;-83
2021/09/17 09:06:14;;;;;;;;;13.00;13.00;;;;;16.87;77.67;101165.84;5058364;28;45859;-83
2021/09/17 09:08:41;;;;;;;;;12.67;11.33;;;;;16.91;78.51;101167.91;5058927;28;46159;-83
2021/09/17 09:11:23;;;;;;;;;12.00;11.00;;;;;16.95;77.82;101168.31;5058946;28;45563;-84
2021/09/17 09:14:06;;;;;;;;;9.00;8.33;;;;;16.99;77.63;101166.88;5060182;28;45323;-84
2021/09/17 09:16:36;;;;;;;;;11.00;8.00;;;;;17.08;77.77;101164.84;5060446;28;45438;-88
2021/09/17 09:19:24;;;;;;;;;12.00;11.33;;;;;17.16;76.36;101164.59;5063047;28;46132;-86
2021/09/17 09:21:53;;;;;;;;;9.00;9.00;;;;;17.18;76.06;101153.66;5061103;28;45164;-88
2021/09/17 09:24:21;;;;;;;;;9.67;9.00;;;;;17.29;76.10;101157.56;5060946;28;45215;-86
2021/09/17 09:27:18;;;;;;;;;9.00;9.00;;;;;17.46;75.23;101159.81;5060917;28;45453;-85
2021/09/17 09:29:46;;;;;;;;;10.33;9.67;;;;;17.58;74.43;101160.84;5064361;28;46084;-83
2021/09/17 09:32:24;;;;;;;;;10.00;10.00;;;;;17.64;74.87;101143.88;5080995;28;45305;-84
2021/09/17 09:34:58;;;;;;;;;9.00;9.00;;;;;17.79;74.55;101150.84;5081441;28;45487;-84
2021/09/17 09:37:35;;;;;;;;;9.00;8.00;;;;;17.86;73.58;101150.78;5080902;28;45221;-82
2021/09/17 09:40:08;;;;;;;;;11.33;8.67;;;;;18.01;72.87;101151.38;5079341;28;47278;-83
2021/09/17 09:42:41;;;;;;;;;8.00;8.00;;;;;18.12;71.77;101149.06;5079483;28;45315;-85
2021/09/17 09:45:14;;;;;;;;;7.67;7.67;;;;;18.28;71.97;101151.25;5080888;28;45271;-82
2021/09/17 09:47:42;;;;;;;;;9.33;8.00;;;;;18.39;71.63;101146.22;5080101;28;45446;-83
2021/09/17 09:50:39;;;;;;;;;8.67;8.67;;;;;18.55;71.46;101147.56;5081280;28;48341;-85
2021/09/17 09:53:15;;;;;;;;;7.33;7.33;;;;;18.66;70.58;101138.78;5080413;28;45400;-84
2021/09/17 09:55:41;;;;;;;;;7.67;7.67;;;;;18.76;70.97;101138.28;5080962;27;45463;-85
2021/09/17 09:58:07;;;;;;;;;7.67;7.67;;;;;18.86;70.81;101145.88;5078881;28;45556;-85
2021/09/17 10:00:33;;;;;;;;;7.67;7.67;;;;;18.98;70.26;101145.16;5078983;28;47608;-86
2021/09/17 10:02:59;;;;;;;;;10.00;9.00;;;;;19.11;70.65;101147.75;5080335;28;45850;-85
2021/09/17 10:05:27;;;;;;;;;8.33;8.33;;;;;19.25;69.21;101143.06;5080704;28;45324;-85
2021/09/17 10:07:53;;;;;;;;;6.67;6.67;;;;;19.43;68.76;101141.44;5063096;28;45283;-84
2021/09/17 10:10:19;;;;;;;;;7.67;7.67;;;;;19.59;68.16;101140.00;5059760;28;46186;-83
2021/09/17 10:12:48;;;;;;;;;7.33;7.33;;;;;19.74;69.08;101145.03;5060370;28;45306;-85
2021/09/17 10:15:16;;;;;;;;;7.00;7.00;;;;;19.85;68.42;101140.75;5060461;28;45571;-84
2021/09/17 10:17:51;;;;;;;;;9.33;9.00;;;;;19.97;67.60;101139.97;5059733;28;45221;-87
2021/09/17 10:20:16;;;;;;;;;7.00;7.00;;;;;20.08;65.92;101125.72;5060712;28;46440;-85
2021/09/17 10:22:44;;;;;;;;;6.00;6.00;;;;;20.20;67.25;101120.38;5060044;28;45310;-84
2021/09/17 10:25:27;;;;;;;;;8.33;8.00;;;;;20.41;67.17;101127.13;5058835;28;45374;-82
2021/09/17 10:28:08;;;;;;;;;6.00;6.00;;;;;20.51;65.82;101123.88;5060181;28;45158;-88
2021/09/17 10:30:37;;;;;;;;;5.33;5.33;;;;;20.64;65.03;101124.69;5068909;28;48065;-79
2021/09/17 10:33:03;;;;;;;;;9.00;8.00;;;;;20.64;64.85;101117.44;5080050;28;45302;-86
2021/09/17 10:35:42;;;;;;;;;6.00;6.00;;;;;20.79;64.04;101122.38;5079709;28;45251;-85
2021/09/17 10:38:17;;;;;;;;;9.00;9.00;;;;;20.99;64.46;101115.00;5079870;28;45561;-84
2021/09/17 10:41:03;;;;;;;;;7.67;7.33;;;;;21.16;64.28;101121.34;5078877;28;46474;-87
2021/09/17 10:43:49;;;;;;;;;7.33;7.33;;;;;21.31;64.53;101120.84;5059608;28;45374;-84
2021/09/17 10:46:35;;;;;;;;;6.00;6.00;;;;;21.43;60.82;101117.31;5059378;28;45327;-85
2021/09/17 10:49:00;;;;;;;;;9.00;8.67;;;;;21.53;63.27;101120.22;5058507;28;45433;-87
2021/09/17 10:51:36;;;;;;;;;4.33;4.33;;;;;21.65;62.97;101116.66;5059843;28;45229;-86
2021/09/17 10:54:13;;;;;;;;;7.67;7.67;;;;;21.72;62.86;101117.34;5058179;28;45336;-83
2021/09/17 10:57:03;;;;;;;;;8.33;8.33;;;;;21.79;63.21;101117.25;5059730;28;45210;-80
2021/09/17 10:59:40;;;;;;;;;8.33;8.33;;;;;21.91;62.52;101115.31;5051701;28;46509;-83
2021/09/17 11:02:07;;;;;;;;;7.33;7.33;;;;;22.00;62.46;101118.44;5058066;28;47390;-81
2021/09/17 11:04:33;;;;;;;;;8.67;8.33;;;;;22.00;61.22;101110.31;5058115;28;45318;-81
2021/09/17 11:07:17;;;;;;;;;8.67;8.67;;;;;22.00;61.03;101110.31;5059455;28;45223;-84
2021/09/17 11:09:50;;;;;;;;;6.00;6.00;;;;;21.96;59.58;101097.53;5059081;28;45484;-83
2021/09/17 11:12:25;;;;;;;;;7.33;7.33;;;;;22.09;61.05;101099.94;5059804;28;46245;-90